createdAt,value
2023-10-19T00:00:37.572Z,6.65
2023-10-19T00:01:39.787Z,6.15
2023-10-19T00:02:41.972Z,6.60
2023-10-19T00:03:45.660Z,3.97
2023-10-19T00:04:48.195Z,6.70
2023-10-19T00:05:50.730Z,7.05
2023-10-19T00:06:54.577Z,6.35
2023-10-19T00:07:58.828Z,10.40
2023-10-19T00:09:01.082Z,5.10
2023-10-19T00:10:05.398Z,4.53
2023-10-19T00:11:11.030Z,9.82
2023-10-19T00:12:14.401Z,12.70
2023-10-19T00:13:16.594Z,8.38
2023-10-19T00:14:19.822Z,5.32
2023-10-19T00:15:27.501Z,7.93
2023-10-19T00:16:36.295Z,8.20
2023-10-19T00:17:40.624Z,5.47
2023-10-19T00:18:44.674Z,8.20
2023-10-19T00:19:59.536Z,9.45
2023-10-19T00:21:12.416Z,10.45
2023-10-19T00:22:22.685Z,7.70
2023-10-19T00:23:32.573Z,7.00
2023-10-19T00:24:34.729Z,5.43
2023-10-19T00:25:36.830Z,6.97
2023-10-19T00:26:38.977Z,7.35
2023-10-19T00:27:42.318Z,6.57
2023-10-19T00:28:47.665Z,12.05
2023-10-19T00:29:50.957Z,6.30
2023-10-19T00:30:54.496Z,15.98
2023-10-19T00:31:57.711Z,8.32
2023-10-19T00:33:05.204Z,9.00
2023-10-19T00:34:08.112Z,8.52
2023-10-19T00:35:28.448Z,7.78
2023-10-19T00:36:33.090Z,10.38
2023-10-19T00:37:43.691Z,8.18
2023-10-19T00:38:52.112Z,9.98
2023-10-19T00:39:58.356Z,8.43
2023-10-19T00:41:01.174Z,8.25
2023-10-19T00:42:03.930Z,6.00
2023-10-19T00:43:11.747Z,14.40
2023-10-19T00:44:24.075Z,7.28
2023-10-19T00:45:28.213Z,6.25
2023-10-19T00:46:39.529Z,6.85
2023-10-19T00:47:41.852Z,6.72
2023-10-19T00:48:50.668Z,4.03
2023-10-19T00:49:54.060Z,6.18
2023-10-19T00:51:08.367Z,4.90
2023-10-19T00:52:13.889Z,5.65
2023-10-19T00:53:17.381Z,2.78
2023-10-19T00:54:49.591Z,7.90
2023-10-19T00:55:53.556Z,7.25
2023-10-19T00:57:00.385Z,6.65
2023-10-19T00:58:11.141Z,2.42
2023-10-19T00:59:16.832Z,5.50
2023-10-19T01:00:35.879Z,4.85
2023-10-19T01:01:45.365Z,3.53
2023-10-19T01:02:49.148Z,5.30
2023-10-19T01:03:53.959Z,3.70
2023-10-19T01:05:09.316Z,5.88
2023-10-19T01:06:11.421Z,5.20
2023-10-19T01:07:24.135Z,4.03
2023-10-19T01:08:33.130Z,3.88
2023-10-19T01:09:40.172Z,5.38
2023-10-19T01:10:42.481Z,2.92
2023-10-19T01:11:51.178Z,6.70
2023-10-19T01:12:53.693Z,4.10
2023-10-19T01:13:56.688Z,4.68
2023-10-19T01:15:18.846Z,3.15
2023-10-19T01:16:23.687Z,4.30
2023-10-19T01:17:28.421Z,4.00
2023-10-19T01:18:30.950Z,4.50
2023-10-19T01:19:33.198Z,7.00
2023-10-19T01:20:49.588Z,2.83
2023-10-19T01:21:59.979Z,3.92
2023-10-19T01:23:08.066Z,2.78
2023-10-19T01:24:14.042Z,8.93
2023-10-19T01:25:22.091Z,4.40
2023-10-19T01:26:28.033Z,5.38
2023-10-19T01:27:30.352Z,6.72
2023-10-19T01:28:54.719Z,8.00
2023-10-19T01:30:01.509Z,7.13
2023-10-19T01:31:07.908Z,7.90
2023-10-19T01:32:10.413Z,4.40
2023-10-19T01:33:17.179Z,10.32
2023-10-19T01:34:21.642Z,5.47
2023-10-19T01:35:23.951Z,7.68
2023-10-19T01:36:26.607Z,7.95
2023-10-19T01:37:28.853Z,6.10
2023-10-19T01:38:34.945Z,8.82
2023-10-19T01:39:38.608Z,11.43
2023-10-19T01:40:47.597Z,5.22
2023-10-19T01:41:52.181Z,7.88
2023-10-19T01:42:54.423Z,16.17
2023-10-19T01:44:03.004Z,7.80
2023-10-19T01:45:07.320Z,10.95
2023-10-19T01:46:13.415Z,12.05
2023-10-19T01:47:17.692Z,9.15
2023-10-19T01:48:21.476Z,6.75
2023-10-19T01:49:29.965Z,9.68
2023-10-19T01:50:32.156Z,7.47
2023-10-19T01:51:39.520Z,6.43
2023-10-19T01:52:41.818Z,9.95
2023-10-19T01:53:47.897Z,9.32
2023-10-19T01:54:50.064Z,5.43
2023-10-19T01:55:58.992Z,5.97
2023-10-19T01:57:01.149Z,9.23
2023-10-19T01:58:03.586Z,6.30
2023-10-19T01:59:06.206Z,6.20
2023-10-19T02:00:12.493Z,7.45
2023-10-19T02:01:29.460Z,10.65
2023-10-19T02:02:33.896Z,6.25
2023-10-19T02:03:37.018Z,7.03
2023-10-19T02:04:42.542Z,8.00
2023-10-19T02:05:45.125Z,4.75
2023-10-19T02:06:51.869Z,4.40
2023-10-19T02:07:54.240Z,4.53
2023-10-19T02:09:01.549Z,5.07
2023-10-19T02:10:04.339Z,4.70
2023-10-19T02:11:18.029Z,4.85
2023-10-19T02:12:21.405Z,7.10
2023-10-19T02:13:23.555Z,8.90
2023-10-19T02:14:26.866Z,6.80
2023-10-19T02:15:28.936Z,5.15
2023-10-19T02:16:31.099Z,7.63
2023-10-19T02:17:35.618Z,4.35
2023-10-19T02:18:37.849Z,3.08
2023-10-19T02:19:39.924Z,4.72
2023-10-19T02:20:42.788Z,9.95
2023-10-19T02:21:49.284Z,7.55
2023-10-19T02:22:53.709Z,5.35
2023-10-19T02:23:55.826Z,5.45
2023-10-19T02:24:58.482Z,7.20
2023-10-19T02:26:00.598Z,7.47
2023-10-19T02:27:02.801Z,5.70
2023-10-19T02:28:08.552Z,5.85
2023-10-19T02:29:11.286Z,4.70
2023-10-19T02:30:13.758Z,5.60
2023-10-19T02:31:26.550Z,6.75
2023-10-19T02:32:30.234Z,5.68
2023-10-19T02:33:32.480Z,6.85
2023-10-19T02:34:36.537Z,8.07
2023-10-19T02:35:39.306Z,16.33
2023-10-19T02:36:41.821Z,6.65
2023-10-19T02:37:44.004Z,6.45
2023-10-19T02:38:50.243Z,4.00
2023-10-19T02:39:53.555Z,6.63
2023-10-19T02:40:56.100Z,7.25
2023-10-19T02:41:58.252Z,3.58
2023-10-19T02:43:05.006Z,3.85
2023-10-19T02:44:20.740Z,4.10
2023-10-19T02:45:23.161Z,3.65
2023-10-19T02:46:25.538Z,2.75
2023-10-19T02:47:30.420Z,4.50
2023-10-19T02:48:32.695Z,5.35
2023-10-19T02:49:39.758Z,7.85
2023-10-19T02:50:42.913Z,5.22
2023-10-19T02:51:46.127Z,2.67
2023-10-19T02:52:48.363Z,5.28
2023-10-19T02:53:50.557Z,4.10
2023-10-19T02:54:52.674Z,3.70
2023-10-19T02:55:54.777Z,4.82
2023-10-19T02:57:00.164Z,3.83
2023-10-19T02:58:02.816Z,6.78
2023-10-19T02:59:07.901Z,5.43
2023-10-19T03:00:14.565Z,6.63
2023-10-19T03:01:23.447Z,8.60
2023-10-19T03:02:27.597Z,11.73
2023-10-19T03:03:32.525Z,4.32
2023-10-19T03:04:37.443Z,4.53
2023-10-19T03:05:40.988Z,4.20
2023-10-19T03:06:43.017Z,4.65
2023-10-19T03:07:45.707Z,6.43
2023-10-19T03:08:48.218Z,6.95
2023-10-19T03:09:50.783Z,5.43
2023-10-19T03:11:05.306Z,3.58
2023-10-19T03:12:11.947Z,6.50
2023-10-19T03:13:16.399Z,3.33
2023-10-19T03:14:18.581Z,3.60
2023-10-19T03:15:23.368Z,3.70
2023-10-19T03:16:25.899Z,7.10
2023-10-19T03:17:30.416Z,7.90
2023-10-19T03:18:32.676Z,4.53
2023-10-19T03:19:36.369Z,7.05
2023-10-19T03:20:39.765Z,6.47
2023-10-19T03:21:45.404Z,8.00
2023-10-19T03:22:47.723Z,4.20
2023-10-19T03:23:51.576Z,6.63
2023-10-19T03:25:14.341Z,6.68
2023-10-19T03:26:21.915Z,4.80
2023-10-19T03:27:24.381Z,6.15
2023-10-19T03:28:27.798Z,5.25
2023-10-19T03:29:39.982Z,3.75
2023-10-19T03:30:42.329Z,3.75
2023-10-19T03:31:48.737Z,9.88
2023-10-19T03:32:52.711Z,3.80
2023-10-19T03:34:01.127Z,4.25
2023-10-19T03:35:05.976Z,5.40
2023-10-19T03:36:14.535Z,5.97
2023-10-19T03:37:16.802Z,2.97
2023-10-19T03:38:20.375Z,5.18
2023-10-19T03:39:23.236Z,4.75
2023-10-19T03:40:32.309Z,5.03
2023-10-19T03:41:37.302Z,4.28
2023-10-19T03:42:42.328Z,6.30
2023-10-19T03:43:45.230Z,4.10
2023-10-19T03:44:50.812Z,3.42
2023-10-19T03:45:54.518Z,7.65
2023-10-19T03:47:02.662Z,6.30
2023-10-19T03:48:10.716Z,3.30
2023-10-19T03:49:14.671Z,7.50
2023-10-19T03:50:21.821Z,8.77
2023-10-19T03:51:26.357Z,9.57
2023-10-19T03:52:31.876Z,4.18
2023-10-19T03:53:34.372Z,5.97
2023-10-19T03:54:41.827Z,3.80
2023-10-19T03:55:45.226Z,5.45
2023-10-19T03:56:47.342Z,8.07
2023-10-19T03:57:53.974Z,7.13
2023-10-19T03:59:00.672Z,6.72
2023-10-19T04:00:05.112Z,8.05
2023-10-19T04:01:18.049Z,9.07
2023-10-19T04:02:22.777Z,9.80
2023-10-19T04:03:26.424Z,8.27
2023-10-19T04:04:31.142Z,12.35
2023-10-19T04:05:36.737Z,9.73
2023-10-19T04:06:39.187Z,6.50
2023-10-19T04:07:42.694Z,5.80
2023-10-19T04:08:46.588Z,3.50
2023-10-19T04:10:08.062Z,8.57
2023-10-19T04:11:13.872Z,4.07
2023-10-19T04:12:18.927Z,7.68
2023-10-19T04:13:21.053Z,7.22
2023-10-19T04:14:23.318Z,7.63
2023-10-19T04:15:27.957Z,5.97
2023-10-19T04:16:30.395Z,7.82
2023-10-19T04:17:32.610Z,6.13
2023-10-19T04:18:35.975Z,6.45
2023-10-19T04:19:38.067Z,6.75
2023-10-19T04:21:00.650Z,7.65
2023-10-19T04:22:02.757Z,6.88
2023-10-19T04:23:12.561Z,5.07
2023-10-19T04:24:16.282Z,6.35
2023-10-19T04:25:20.574Z,8.93
2023-10-19T04:26:22.744Z,4.78
2023-10-19T04:27:24.849Z,5.00
2023-10-19T04:28:32.087Z,3.33
2023-10-19T04:29:34.813Z,6.45
2023-10-19T04:30:38.882Z,4.82
2023-10-19T04:31:56.554Z,8.50
2023-10-19T04:32:59.394Z,5.13
2023-10-19T04:34:10.723Z,4.32
2023-10-19T04:35:15.691Z,3.20
2023-10-19T04:36:21.167Z,3.22
2023-10-19T04:37:25.606Z,6.55
2023-10-19T04:38:28.406Z,8.07
2023-10-19T04:39:31.749Z,4.30
2023-10-19T04:40:34.008Z,7.40
2023-10-19T04:41:36.334Z,5.93
2023-10-19T04:42:41.351Z,3.03
2023-10-19T04:43:51.691Z,4.63
2023-10-19T04:44:53.961Z,9.35
2023-10-19T04:45:56.036Z,12.00
2023-10-19T04:46:58.928Z,3.60
2023-10-19T04:48:01.297Z,6.15
2023-10-19T04:49:05.077Z,4.70
2023-10-19T04:50:08.361Z,3.67
2023-10-19T04:51:11.100Z,8.35
2023-10-19T04:52:13.190Z,4.28
2023-10-19T04:53:15.319Z,8.40
2023-10-19T04:54:17.566Z,6.47
2023-10-19T04:55:20.024Z,3.00
2023-10-19T04:56:22.395Z,5.65
2023-10-19T04:57:24.550Z,18.00
2023-10-19T04:58:26.680Z,6.68
2023-10-19T04:59:28.912Z,7.85
2023-10-19T05:00:31.254Z,8.63
2023-10-19T05:01:36.508Z,5.35
2023-10-19T05:02:40.030Z,5.28
2023-10-19T05:03:43.071Z,5.68
2023-10-19T05:04:45.318Z,2.60
2023-10-19T05:05:47.429Z,6.35
2023-10-19T05:06:49.535Z,8.45
2023-10-19T05:07:51.770Z,13.02
2023-10-19T05:08:54.051Z,9.63
2023-10-19T05:09:56.211Z,7.80
2023-10-19T05:11:00.594Z,9.50
2023-10-19T05:12:03.000Z,9.15
2023-10-19T05:13:05.952Z,8.13
2023-10-19T05:14:08.141Z,6.43
2023-10-19T05:15:10.523Z,8.73
2023-10-19T05:16:12.649Z,7.30
2023-10-19T05:17:15.425Z,7.18
2023-10-19T05:18:17.599Z,7.20
2023-10-19T05:19:20.145Z,8.82
2023-10-19T05:20:22.607Z,3.45
2023-10-19T05:21:25.933Z,3.60
2023-10-19T05:22:31.201Z,9.88
2023-10-19T05:23:34.127Z,5.57
2023-10-19T05:24:37.044Z,8.82
2023-10-19T05:25:39.173Z,7.68
2023-10-19T05:26:41.268Z,6.13
2023-10-19T05:27:43.861Z,10.82
2023-10-19T05:28:46.182Z,12.18
2023-10-19T05:29:48.366Z,7.72
2023-10-19T05:30:51.547Z,7.70
2023-10-19T05:31:59.423Z,17.52
2023-10-19T05:33:04.498Z,10.30
2023-10-19T05:34:06.966Z,31.08
2023-10-19T05:35:09.219Z,23.90
2023-10-19T05:36:11.408Z,23.25
2023-10-19T05:37:14.220Z,14.27
2023-10-19T05:38:16.873Z,13.82
2023-10-19T05:39:19.249Z,14.23
2023-10-19T05:40:21.504Z,8.93
2023-10-19T05:41:23.661Z,12.75
2023-10-19T05:42:26.386Z,39.17
2023-10-19T05:43:29.664Z,44.03
2023-10-19T05:44:33.749Z,72.70
2023-10-19T05:45:39.627Z,38.13
2023-10-19T05:46:43.848Z,33.03
2023-10-19T05:47:45.930Z,20.35
2023-10-19T05:48:48.084Z,15.90
2023-10-19T05:49:50.139Z,12.13
2023-10-19T05:50:52.285Z,5.95
2023-10-19T05:51:54.526Z,13.07
2023-10-19T05:52:57.368Z,7.85
2023-10-19T05:54:06.140Z,4.95
2023-10-19T05:55:08.465Z,9.95
2023-10-19T05:56:10.908Z,6.85
2023-10-19T05:57:13.776Z,7.32
2023-10-19T05:58:15.983Z,9.00
2023-10-19T05:59:18.096Z,5.63
2023-10-19T06:00:22.052Z,6.22
2023-10-19T06:01:24.841Z,13.68
2023-10-19T06:02:33.256Z,12.60
2023-10-19T06:03:35.979Z,9.15
2023-10-19T06:04:39.742Z,10.00
2023-10-19T06:05:42.436Z,6.15
2023-10-19T06:06:44.608Z,10.75
2023-10-19T06:07:50.231Z,13.55
2023-10-19T06:08:55.225Z,6.35
2023-10-19T06:09:57.621Z,6.82
2023-10-19T06:11:00.049Z,12.57
2023-10-19T06:12:03.289Z,11.85
2023-10-19T06:13:05.933Z,3.22
2023-10-19T06:14:08.564Z,4.88
2023-10-19T06:15:12.370Z,14.93
2023-10-19T06:16:15.709Z,20.25
2023-10-19T06:17:20.798Z,12.80
2023-10-19T06:18:23.000Z,10.10
2023-10-19T06:19:25.157Z,7.50
2023-10-19T06:20:30.278Z,8.30
2023-10-19T06:21:33.100Z,10.05
2023-10-19T06:22:36.591Z,15.82
2023-10-19T06:23:38.752Z,7.43
2023-10-19T06:24:40.939Z,4.63
2023-10-19T06:25:44.596Z,5.18
2023-10-19T06:26:46.815Z,11.73
2023-10-19T06:27:49.399Z,8.57
2023-10-19T06:28:52.476Z,13.20
2023-10-19T06:29:54.766Z,5.20
2023-10-19T06:30:56.805Z,6.40
2023-10-19T06:31:59.068Z,8.55
2023-10-19T06:33:04.872Z,8.90
2023-10-19T06:34:07.034Z,17.40
2023-10-19T06:35:09.152Z,12.50
2023-10-19T06:36:11.181Z,11.95
2023-10-19T06:37:13.348Z,5.95
2023-10-19T06:39:19.468Z,17.80
2023-10-19T06:40:21.901Z,8.52
2023-10-19T06:41:25.400Z,4.97
2023-10-19T06:42:27.466Z,7.80
2023-10-19T06:43:33.682Z,6.57
2023-10-19T06:44:37.527Z,11.00
2023-10-19T06:45:40.584Z,10.32
2023-10-19T06:46:44.796Z,7.60
2023-10-19T06:47:48.302Z,19.85
2023-10-19T06:48:52.543Z,5.97
2023-10-19T06:49:54.797Z,12.10
2023-10-19T06:50:57.848Z,7.35
2023-10-19T06:52:00.285Z,10.70
2023-10-19T06:53:04.932Z,11.93
2023-10-19T06:54:09.702Z,14.50
2023-10-19T06:55:15.315Z,15.40
2023-10-19T06:56:17.503Z,15.90
2023-10-19T06:57:20.906Z,9.38
2023-10-19T06:58:23.086Z,48.00
2023-10-19T06:59:25.547Z,6.13
2023-10-19T07:00:30.568Z,10.13
2023-10-19T07:01:34.000Z,5.90
2023-10-19T07:02:36.327Z,5.40
2023-10-19T07:03:38.552Z,5.88
2023-10-19T07:04:40.799Z,7.88
2023-10-19T07:05:42.933Z,11.35
2023-10-19T07:06:46.099Z,9.85
2023-10-19T07:07:48.265Z,5.07
2023-10-19T07:08:50.413Z,9.13
2023-10-19T07:09:53.989Z,7.97
2023-10-19T07:10:57.669Z,5.90
2023-10-19T07:12:00.103Z,10.52
2023-10-19T07:13:02.196Z,9.88
2023-10-19T07:14:08.247Z,8.18
2023-10-19T07:15:15.064Z,12.25
2023-10-19T07:16:18.167Z,9.75
2023-10-19T07:17:20.308Z,7.07
2023-10-19T07:18:22.380Z,31.38
2023-10-19T07:19:24.640Z,12.27
2023-10-19T07:20:33.218Z,9.55
2023-10-19T07:21:38.236Z,12.60
2023-10-19T07:22:40.824Z,6.13
2023-10-19T07:23:45.859Z,6.60
2023-10-19T07:24:48.380Z,13.30
2023-10-19T07:25:56.167Z,8.85
2023-10-19T07:27:16.323Z,14.23
2023-10-19T07:28:28.212Z,27.60
2023-10-19T07:29:32.213Z,31.00
2023-10-19T07:30:34.382Z,38.47
2023-10-19T07:31:36.678Z,54.55
2023-10-19T07:32:40.077Z,42.42
2023-10-19T07:33:47.444Z,56.20
2023-10-19T07:34:50.082Z,63.35
2023-10-19T07:36:01.654Z,57.50
2023-10-19T07:37:05.180Z,58.67
2023-10-19T07:38:09.008Z,54.50
2023-10-19T07:39:20.385Z,61.20
2023-10-19T07:40:22.554Z,54.10
2023-10-19T07:41:24.655Z,58.72
2023-10-19T07:42:27.104Z,51.08
2023-10-19T07:43:29.714Z,49.38
2023-10-19T07:44:32.262Z,43.78
2023-10-19T07:45:36.250Z,61.10
2023-10-19T07:46:38.400Z,47.92
2023-10-19T07:47:43.612Z,36.80
2023-10-19T07:48:45.678Z,31.67
2023-10-19T07:49:49.472Z,33.70
2023-10-19T07:50:51.608Z,31.35
2023-10-19T07:51:53.694Z,26.75
2023-10-19T07:52:55.919Z,27.08
2023-10-19T07:53:58.390Z,28.92
2023-10-19T07:55:00.465Z,17.50
2023-10-19T07:56:02.665Z,23.15
2023-10-19T07:57:07.274Z,22.65
2023-10-19T07:58:09.669Z,25.75
2023-10-19T07:59:13.468Z,21.80
2023-10-19T08:00:15.655Z,15.07
2023-10-19T08:01:18.040Z,15.18
2023-10-19T08:02:20.690Z,30.15
2023-10-19T08:03:23.405Z,25.85
2023-10-19T08:04:26.862Z,16.15
2023-10-19T08:05:29.225Z,23.60
2023-10-19T08:06:32.597Z,21.40
2023-10-19T08:07:35.995Z,14.95
2023-10-19T08:08:38.162Z,20.92
2023-10-19T08:09:40.236Z,15.88
2023-10-19T08:10:42.359Z,17.20
2023-10-19T08:11:44.423Z,16.65
2023-10-19T08:12:50.649Z,10.32
2023-10-19T08:13:52.860Z,14.25
2023-10-19T08:14:57.073Z,9.57
2023-10-19T08:15:59.164Z,18.65
2023-10-19T08:17:01.250Z,37.35
2023-10-19T08:18:03.440Z,47.35
2023-10-19T08:19:05.849Z,62.30
2023-10-19T08:20:10.821Z,100.30
2023-10-19T08:21:14.009Z,109.03
2023-10-19T08:22:17.223Z,122.13
2023-10-19T08:23:24.895Z,107.55
2023-10-19T08:24:30.607Z,114.55
2023-10-19T08:25:52.305Z,129.85
2023-10-19T08:26:55.221Z,115.90
2023-10-19T08:28:00.051Z,93.43
2023-10-19T08:29:02.255Z,107.55
2023-10-19T08:30:05.187Z,83.82
2023-10-19T08:31:11.674Z,67.93
2023-10-19T08:32:15.057Z,46.28
2023-10-19T08:33:17.167Z,37.10
2023-10-19T08:34:20.981Z,31.23
2023-10-19T08:35:26.926Z,30.95
2023-10-19T08:36:30.613Z,31.50
2023-10-19T08:37:33.079Z,39.15
2023-10-19T08:38:36.363Z,33.92
2023-10-19T08:39:38.491Z,37.45
2023-10-19T08:40:41.455Z,32.80
2023-10-19T08:41:44.661Z,34.65
2023-10-19T08:42:47.428Z,27.42
2023-10-19T08:43:50.532Z,16.77
2023-10-19T08:44:52.898Z,22.73
2023-10-19T08:45:56.302Z,17.70
2023-10-19T08:47:01.523Z,20.25
2023-10-19T08:48:03.865Z,17.40
2023-10-19T08:49:06.032Z,19.73
2023-10-19T08:50:09.410Z,16.15
2023-10-19T08:51:14.520Z,17.13
2023-10-19T08:52:17.107Z,17.48
2023-10-19T08:53:21.086Z,14.02
2023-10-19T08:54:23.256Z,16.27
2023-10-19T08:55:40.979Z,14.95
2023-10-19T08:56:49.020Z,11.23
2023-10-19T08:57:51.639Z,9.93
2023-10-19T08:58:53.944Z,19.55
2023-10-19T08:59:59.967Z,11.93
2023-10-19T09:01:07.990Z,8.13
2023-10-19T09:02:10.129Z,14.07
2023-10-19T09:03:15.374Z,16.05
2023-10-19T09:04:20.162Z,8.25
2023-10-19T09:05:26.989Z,12.77
2023-10-19T09:06:30.515Z,9.93
2023-10-19T09:07:32.635Z,17.65
2023-10-19T09:08:41.023Z,11.25
2023-10-19T09:09:43.180Z,13.60
2023-10-19T09:10:47.162Z,12.32
2023-10-19T09:11:49.995Z,16.10
2023-10-19T09:13:03.352Z,14.35
2023-10-19T09:14:06.211Z,14.85
2023-10-19T09:15:22.190Z,9.93
2023-10-19T09:16:25.088Z,15.80
2023-10-19T09:17:30.986Z,14.05
2023-10-19T09:18:33.131Z,19.63
2023-10-19T09:19:42.115Z,15.25
2023-10-19T09:20:55.430Z,11.57
2023-10-19T09:21:57.780Z,9.18
2023-10-19T09:22:59.986Z,11.35
2023-10-19T09:24:02.131Z,19.67
2023-10-19T09:25:08.244Z,11.65
2023-10-19T09:26:10.395Z,10.68
2023-10-19T09:27:13.679Z,15.38
2023-10-19T09:28:15.776Z,14.73
2023-10-19T09:29:20.006Z,13.60
2023-10-19T09:30:23.378Z,7.55
2023-10-19T09:31:26.431Z,16.58
2023-10-19T09:32:30.324Z,12.15
2023-10-19T09:33:35.381Z,15.10
2023-10-19T09:34:37.842Z,17.17
2023-10-19T09:35:40.367Z,11.90
2023-10-19T09:36:44.742Z,18.75
2023-10-19T09:37:46.901Z,12.73
2023-10-19T09:38:52.984Z,11.52
2023-10-19T09:39:55.369Z,13.98
2023-10-19T09:41:01.961Z,14.05
2023-10-19T09:42:07.903Z,15.57
2023-10-19T09:43:13.785Z,14.23
2023-10-19T09:44:16.792Z,10.52
2023-10-19T09:45:20.516Z,13.05
2023-10-19T09:46:22.826Z,13.25
2023-10-19T09:47:32.292Z,16.08
2023-10-19T09:48:37.171Z,15.40
2023-10-19T09:49:40.406Z,10.43
2023-10-19T09:50:42.506Z,17.33
2023-10-19T09:51:52.341Z,15.55
2023-10-19T09:53:05.533Z,10.13
2023-10-19T09:54:37.279Z,10.82
2023-10-19T09:55:41.585Z,11.38
2023-10-19T09:56:47.945Z,10.18
2023-10-19T09:58:11.266Z,12.02
2023-10-19T09:59:32.721Z,9.85
2023-10-19T10:00:36.000Z,12.65
2023-10-19T10:02:16.852Z,15.82
2023-10-19T10:03:44.229Z,15.43
2023-10-19T10:04:50.315Z,11.77
2023-10-19T10:05:53.132Z,16.25
2023-10-19T10:06:55.788Z,12.60
2023-10-19T10:08:16.617Z,12.52
2023-10-19T10:09:24.899Z,13.82
2023-10-19T10:10:26.954Z,19.65
2023-10-19T10:11:29.804Z,13.73
2023-10-19T10:12:36.362Z,20.00
2023-10-19T10:13:38.800Z,13.65
2023-10-19T10:14:53.747Z,14.60
2023-10-19T10:15:56.723Z,9.05
2023-10-19T10:17:04.651Z,15.70
2023-10-19T10:18:15.399Z,14.10
2023-10-19T10:19:21.730Z,14.38
2023-10-19T10:20:24.058Z,7.30
2023-10-19T10:21:26.158Z,19.42
2023-10-19T10:22:28.953Z,9.00
2023-10-19T10:23:34.062Z,30.30
2023-10-19T10:24:36.159Z,16.75
2023-10-19T10:25:40.127Z,10.10
2023-10-19T10:27:01.946Z,10.75
2023-10-19T10:29:39.423Z,12.73
2023-10-19T10:31:06.099Z,11.75
2023-10-19T10:32:11.645Z,8.50
2023-10-19T10:33:33.683Z,12.02
2023-10-19T10:34:38.833Z,14.70
2023-10-19T10:35:41.023Z,9.30
2023-10-19T10:37:06.807Z,14.63
2023-10-19T10:38:15.814Z,10.63
2023-10-19T10:39:20.701Z,16.33
2023-10-19T10:40:22.898Z,11.45
2023-10-19T10:41:33.240Z,17.08
2023-10-19T10:42:35.631Z,8.15
2023-10-19T11:36:30.501Z,33.25
2023-10-19T11:37:44.160Z,22.40
2023-10-19T11:38:48.244Z,34.97
2023-10-19T11:39:54.269Z,98.13
2023-10-19T11:40:56.443Z,94.85
2023-10-19T11:41:58.797Z,21.67
2023-10-19T11:43:02.536Z,48.85
2023-10-19T11:44:04.866Z,19.88
2023-10-19T11:45:07.820Z,56.45
2023-10-19T11:46:11.292Z,24.30
2023-10-19T11:47:14.930Z,24.77
2023-10-19T11:48:17.455Z,28.27
2023-10-19T11:49:23.103Z,26.75
2023-10-19T11:50:26.578Z,22.58
2023-10-19T11:51:28.709Z,17.67
2023-10-19T11:52:31.916Z,17.35
2023-10-19T11:53:35.657Z,22.02
2023-10-19T11:54:39.988Z,24.27
2023-10-19T11:55:43.471Z,29.10
2023-10-19T11:56:45.702Z,21.13
2023-10-19T11:57:50.593Z,112.65
2023-10-19T11:58:52.764Z,27.20
2023-10-19T11:59:57.316Z,34.03
2023-10-19T12:01:00.458Z,24.30
2023-10-19T12:02:05.543Z,15.02
2023-10-19T12:03:07.998Z,20.40
2023-10-19T12:04:11.796Z,19.88
2023-10-19T12:05:14.065Z,29.13
2023-10-19T12:06:21.139Z,17.83
2023-10-19T12:07:23.503Z,22.25
2023-10-19T12:08:26.453Z,26.83
2023-10-19T12:09:29.881Z,21.23
2023-10-19T12:10:39.676Z,17.27
2023-10-19T12:11:42.288Z,21.73
2023-10-19T12:12:58.374Z,23.17
2023-10-19T12:14:05.938Z,17.48
2023-10-19T12:15:09.247Z,20.38
2023-10-19T12:16:14.060Z,17.42
2023-10-19T12:17:16.811Z,23.02
2023-10-19T12:18:24.786Z,14.65
2023-10-19T12:19:27.255Z,20.42
2023-10-19T12:20:29.512Z,24.20
2023-10-19T12:21:32.816Z,15.70
2023-10-19T12:22:40.788Z,17.42
2023-10-19T12:23:45.180Z,20.35
2023-10-19T12:24:49.920Z,24.45
2023-10-19T12:25:57.587Z,22.98
2023-10-19T12:27:03.610Z,21.30
2023-10-19T12:28:07.083Z,18.60
2023-10-19T12:29:12.799Z,24.52
2023-10-19T12:30:20.929Z,29.08
2023-10-19T12:31:24.841Z,17.90
2023-10-19T12:32:30.409Z,25.17
2023-10-19T12:33:32.642Z,14.70
2023-10-19T12:34:34.921Z,13.43
2023-10-19T12:35:55.594Z,29.35
2023-10-19T12:37:00.446Z,25.58
2023-10-19T12:38:02.908Z,21.95
2023-10-19T12:39:10.197Z,21.67
2023-10-19T12:40:36.959Z,16.90
2023-10-19T12:41:39.545Z,27.30
2023-10-19T12:42:43.771Z,18.63
2023-10-19T12:43:54.199Z,18.80
2023-10-19T12:44:56.899Z,21.75
2023-10-19T12:46:00.897Z,27.45
2023-10-19T12:47:11.100Z,15.52
2023-10-19T12:48:15.261Z,24.77
2023-10-19T12:49:20.291Z,18.13
2023-10-19T12:50:27.457Z,17.17
2023-10-19T12:51:29.976Z,19.08
2023-10-19T12:52:37.317Z,21.00
2023-10-19T12:53:42.757Z,20.60
2023-10-19T12:54:49.703Z,22.58
2023-10-19T12:55:52.394Z,23.90
2023-10-19T12:56:55.220Z,17.85
2023-10-19T12:58:11.208Z,14.90
2023-10-19T12:59:19.390Z,18.10
2023-10-19T13:00:29.326Z,22.65
2023-10-19T13:02:42.477Z,14.50
2023-10-19T13:03:47.305Z,17.25
2023-10-19T13:04:49.758Z,17.23
2023-10-19T13:05:51.877Z,20.95
2023-10-19T13:06:58.975Z,26.95
2023-10-19T13:08:01.618Z,20.85
2023-10-19T13:09:04.889Z,24.48
2023-10-19T13:10:07.527Z,20.80
2023-10-19T13:11:16.832Z,21.65
2023-10-19T13:12:25.035Z,31.55
2023-10-19T13:13:28.092Z,19.90
2023-10-19T13:14:30.494Z,16.73
2023-10-19T13:15:33.429Z,22.70
2023-10-19T13:16:36.963Z,26.63
2023-10-19T13:17:39.450Z,19.05
2023-10-19T13:18:41.999Z,30.55
2023-10-19T13:19:44.262Z,47.53
2023-10-19T13:20:47.457Z,23.38
2023-10-19T13:21:50.906Z,27.77
2023-10-19T13:22:53.584Z,40.67
2023-10-19T13:23:55.664Z,29.80
2023-10-19T13:24:57.878Z,32.20
2023-10-19T13:26:12.049Z,29.30
2023-10-19T13:27:15.562Z,24.80
2023-10-19T13:28:18.915Z,25.92
2023-10-19T13:29:21.925Z,34.85
2023-10-19T13:30:24.973Z,22.17
2023-10-19T13:31:28.010Z,32.42
2023-10-19T13:32:31.464Z,33.17
2023-10-19T13:33:33.829Z,17.15
2023-10-19T13:34:37.042Z,44.65
2023-10-19T13:35:42.045Z,27.88
2023-10-19T13:36:46.370Z,26.10
2023-10-19T13:37:48.623Z,22.63
2023-10-19T13:38:50.858Z,28.63
2023-10-19T13:39:53.080Z,31.05
2023-10-19T13:40:55.449Z,25.20
2023-10-19T13:41:57.508Z,31.27
2023-10-19T13:43:00.300Z,13.73
2023-10-19T13:44:22.221Z,20.23
2023-10-19T13:45:25.002Z,15.43
2023-10-19T13:46:27.071Z,24.60
2023-10-19T13:47:29.319Z,22.80
2023-10-19T13:48:32.118Z,26.95
2023-10-19T13:49:34.239Z,18.90
2023-10-19T13:50:36.869Z,19.83
2023-10-19T13:51:40.664Z,23.27
2023-10-19T14:13:23.370Z,17.10
2023-10-19T14:15:00.878Z,25.55
2023-10-19T14:16:28.753Z,28.30
2023-10-19T14:17:32.623Z,24.35
2023-10-19T14:18:35.000Z,27.48
2023-10-19T14:19:37.234Z,21.08
2023-10-19T14:20:40.440Z,20.95
2023-10-19T14:21:44.507Z,26.70
2023-10-19T14:22:47.941Z,35.75
2023-10-19T14:23:50.495Z,23.63
2023-10-19T14:24:54.446Z,22.65
2023-10-19T14:25:58.232Z,20.55
2023-10-19T14:27:01.606Z,30.10
2023-10-19T14:28:08.447Z,24.17
2023-10-19T14:29:10.760Z,27.85
2023-10-19T14:30:14.170Z,21.55
2023-10-19T14:31:18.324Z,22.33
2023-10-19T14:32:20.628Z,26.40
2023-10-19T14:33:22.983Z,21.35
2023-10-19T14:34:25.158Z,19.58
2023-10-19T14:35:27.309Z,29.02
2023-10-19T14:36:30.907Z,36.70
2023-10-19T14:37:33.371Z,27.35
2023-10-19T14:38:37.823Z,23.88
2023-10-19T14:39:40.167Z,26.05
2023-10-19T14:40:49.938Z,27.13
2023-10-19T14:41:52.183Z,26.58
2023-10-19T14:42:58.612Z,31.80
2023-10-19T14:44:02.741Z,27.38
2023-10-19T14:45:10.902Z,21.85
2023-10-19T14:46:13.239Z,24.55
2023-10-19T14:47:15.431Z,25.38
2023-10-19T14:48:20.422Z,25.70
2023-10-19T14:49:23.419Z,21.63
2023-10-19T14:50:26.565Z,34.53
2023-10-19T14:51:32.015Z,21.85
2023-10-19T14:52:35.265Z,18.67
2023-10-19T14:53:38.422Z,23.48
2023-10-19T14:54:41.529Z,25.42
2023-10-19T14:55:47.486Z,26.27
2023-10-19T14:56:50.078Z,24.45
2023-10-19T14:58:01.166Z,24.65
2023-10-19T14:59:08.621Z,24.70
2023-10-19T15:00:18.179Z,27.05
2023-10-19T15:01:27.352Z,21.92
2023-10-19T15:02:30.332Z,24.00
2023-10-19T15:03:33.381Z,27.45
2023-10-19T15:04:35.753Z,18.77
2023-10-19T15:05:39.173Z,22.90
2023-10-19T15:06:41.671Z,16.48
2023-10-19T15:07:46.058Z,22.23
2023-10-19T15:08:53.667Z,16.85
2023-10-19T15:09:56.245Z,29.50
2023-10-19T15:10:59.228Z,28.33
2023-10-19T15:12:02.219Z,22.83
2023-10-19T15:13:10.188Z,22.80
2023-10-19T15:14:15.757Z,26.50
2023-10-19T15:15:18.073Z,22.92
2023-10-19T15:16:20.576Z,25.75
2023-10-19T15:17:23.551Z,21.55
2023-10-19T15:26:04.302Z,22.27
2023-10-19T15:27:07.585Z,14.60
2023-10-19T15:28:11.391Z,23.38
2023-10-19T15:29:14.254Z,24.73
2023-10-19T15:30:19.408Z,20.52
2023-10-19T15:31:23.847Z,23.85
2023-10-19T15:32:26.725Z,24.05
2023-10-19T15:33:30.403Z,19.83